Time;durP1;ratioP1;P1;durP2;ratioP2;P2;SDS_P1;SDS_P2;PMS_P1;PMS_P2;Temp;Humidity;BMP_temperature;BMP_pressure;BME280_temperature;BME280_humidity;BME280_pressure;Samples;Min_cycle;Max_cycle;Signal;HPM_P1;HPM_P2
2021/08/01 00:02:12;;;;;;;17.13;9.98;;;15.50;99.90;;;;;;5111418;28;20032;-87
2021/08/01 00:04:39;;;;;;;17.85;9.73;;;15.50;99.90;;;;;;5128369;28;20124;-89
2021/08/01 00:07:06;;;;;;;17.17;9.98;;;15.50;99.90;;;;;;5095039;28;20052;-89
2021/08/01 00:09:32;;;;;;;17.88;9.55;;;15.50;99.90;;;;;;5111040;28;20036;-89
2021/08/01 00:12:00;;;;;;;15.77;10.32;;;15.40;99.90;;;;;;5111533;28;20062;-89
2021/08/01 00:14:26;;;;;;;16.33;9.45;;;15.40;99.90;;;;;;5094175;28;20386;-87
2021/08/01 00:16:53;;;;;;;17.55;10.10;;;15.40;99.90;;;;;;5110938;28;20039;-87
2021/08/01 00:19:20;;;;;;;17.92;10.00;;;15.40;99.90;;;;;;5110668;28;20523;-90
2021/08/01 00:21:47;;;;;;;16.13;10.02;;;15.40;99.90;;;;;;5111551;28;20101;-89
2021/08/01 00:24:14;;;;;;;20.77;10.30;;;15.40;99.90;;;;;;5094616;28;20392;-87
2021/08/01 00:26:40;;;;;;;17.73;9.85;;;15.40;99.90;;;;;;5111118;28;20536;-87
2021/08/01 00:29:07;;;;;;;14.20;10.43;;;15.40;99.90;;;;;;5094609;28;20393;-89
2021/08/01 00:31:34;;;;;;;15.95;9.93;;;15.40;99.90;;;;;;5110795;28;20032;-88
2021/08/01 00:34:01;;;;;;;16.90;9.68;;;15.40;99.90;;;;;;5094403;28;20039;-89
2021/08/01 00:36:28;;;;;;;18.88;10.45;;;15.40;99.90;;;;;;5095684;28;20039;-87
2021/08/01 00:38:55;;;;;;;16.05;9.50;;;15.40;99.90;;;;;;5114858;28;20036;-87
2021/08/01 00:41:22;;;;;;;19.08;10.38;;;15.40;99.90;;;;;;5114303;28;20046;-87
2021/08/01 00:43:48;;;;;;;15.32;10.25;;;15.40;99.90;;;;;;5098307;28;20032;-87
2021/08/01 00:46:17;;;;;;;16.75;10.38;;;15.40;99.90;;;;;;5097747;28;20036;-87
2021/08/01 00:48:44;;;;;;;17.27;10.25;;;15.40;99.90;;;;;;5131739;28;20035;-89
2021/08/01 00:51:12;;;;;;;15.77;10.35;;;15.40;99.90;;;;;;5131995;28;20040;-88
2021/08/01 00:53:41;;;;;;;19.20;10.48;;;15.40;99.90;;;;;;5114384;28;20060;-88
2021/08/01 00:56:09;;;;;;;19.00;10.68;;;15.40;99.90;;;;;;5114685;28;20381;-86
2021/08/01 00:58:36;;;;;;;21.08;11.45;;;15.40;99.90;;;;;;5130294;28;20035;-85
2021/08/01 01:03:39;;;;;;;21.10;11.00;;;15.30;99.90;;;;;;5132021;28;20089;-87
2021/08/01 01:06:12;;;;;;;;;;;15.30;99.90;;;;;;5131815;28;20369;-87
2021/08/01 01:08:51;;;;;;;20.42;11.82;;;15.30;99.90;;;;;;5130562;28;20561;-87
2021/08/01 01:11:19;;;;;;;19.63;11.00;;;15.30;99.90;;;;;;5131777;28;20097;-87
2021/08/01 01:13:49;;;;;;;19.25;12.23;;;15.30;99.90;;;;;;5114329;28;20043;-88
2021/08/01 01:16:16;;;;;;;23.25;11.30;;;15.30;99.90;;;;;;5131549;28;20040;-91
2021/08/01 01:18:48;;;;;;;19.77;12.07;;;15.20;99.90;;;;;;5114579;28;20047;-87
2021/08/01 01:21:40;;;;;;;24.27;12.05;;;15.20;99.90;;;;;;5131270;28;20058;-88
2021/08/01 01:24:13;;;;;;;18.02;11.70;;;15.20;99.90;;;;;;5131409;28;20396;-89
2021/08/01 01:27:09;;;;;;;22.92;12.70;;;15.20;99.90;;;;;;5130931;28;20043;-88
2021/08/01 01:29:46;;;;;;;19.73;12.73;;;15.20;99.90;;;;;;5130540;28;20036;-88
2021/08/01 01:32:38;;;;;;;25.08;12.55;;;15.20;99.90;;;;;;5113797;28;20092;-89
2021/08/01 01:35:13;;;;;;;19.23;11.13;;;15.20;99.90;;;;;;5129891;28;20071;-87
2021/08/01 01:37:41;;;;;;;26.58;13.13;;;15.20;99.90;;;;;;5129684;28;20047;-88
2021/08/01 01:40:11;;;;;;;19.60;11.57;;;15.20;99.90;;;;;;5130547;28;20044;-87
2021/08/01 01:42:40;;;;;;;19.58;12.32;;;15.10;99.90;;;;;;5130110;28;20033;-87
2021/08/01 01:45:07;;;;;;;20.73;12.25;;;15.10;99.90;;;;;;5097356;28;20040;-88
2021/08/01 01:47:34;;;;;;;17.17;11.48;;;15.10;99.90;;;;;;5112253;28;20036;-89
2021/08/01 01:50:03;;;;;;;19.17;12.15;;;15.10;99.90;;;;;;5113951;28;20490;-89
2021/08/01 01:52:30;;;;;;;24.23;12.30;;;15.10;99.90;;;;;;5130027;28;20079;-87
2021/08/01 01:54:58;;;;;;;20.27;12.02;;;15.10;99.90;;;;;;5114046;28;20040;-87
2021/08/01 01:57:25;;;;;;;20.40;12.30;;;15.10;99.90;;;;;;5096757;28;20472;-87
2021/08/01 01:59:52;;;;;;;17.30;12.00;;;15.10;99.90;;;;;;5096978;28;20060;-87
2021/08/01 02:02:20;;;;;;;20.92;11.00;;;15.00;99.90;;;;;;5096854;28;20040;-88
2021/08/01 02:04:46;;;;;;;20.88;11.65;;;15.10;99.90;;;;;;5129748;28;20043;-89
2021/08/01 02:07:13;;;;;;;24.25;11.27;;;15.10;99.90;;;;;;5113278;28;20618;-89
2021/08/01 02:09:50;;;;;;;19.45;11.82;;;15.10;99.90;;;;;;5130292;28;20032;-90
2021/08/01 02:12:45;;;;;;;20.08;11.60;;;15.00;99.90;;;;;;5129924;28;20052;-87
2021/08/01 02:15:16;;;;;;;20.42;11.40;;;15.10;99.90;;;;;;5127900;28;20056;-87
2021/08/01 02:17:57;;;;;;;22.33;11.88;;;15.10;99.90;;;;;;5129715;28;20036;-89
2021/08/01 02:20:29;;;;;;;20.23;11.07;;;15.10;99.90;;;;;;5113845;28;20044;-88
2021/08/01 02:22:58;;;;;;;25.02;11.45;;;15.00;99.90;;;;;;5129975;28;20060;-89
2021/08/01 02:25:28;;;;;;;22.65;11.43;;;15.10;99.90;;;;;;5113152;28;20040;-88
2021/08/01 02:27:56;;;;;;;19.50;10.65;;;15.10;99.90;;;;;;5112964;28;20028;-87
2021/08/01 02:30:27;;;;;;;22.65;10.75;;;15.10;99.90;;;;;;5129847;28;20066;-87
2021/08/01 02:32:54;;;;;;;22.40;11.40;;;15.00;99.90;;;;;;5143530;28;20408;-88
2021/08/01 02:35:22;;;;;;;22.13;11.43;;;15.00;99.90;;;;;;5129669;28;20028;-88
2021/08/01 02:37:52;;;;;;;17.58;9.85;;;15.00;99.90;;;;;;5108144;28;20054;-88
2021/08/01 02:40:20;;;;;;;20.45;10.63;;;15.00;99.90;;;;;;5135942;28;20436;-88
2021/08/01 02:42:49;;;;;;;16.65;10.25;;;15.00;99.90;;;;;;5095172;28;20040;-87
2021/08/01 02:45:17;;;;;;;16.63;10.13;;;15.00;99.90;;;;;;5112756;28;20153;-88
2021/08/01 02:47:45;;;;;;;19.23;10.18;;;15.00;99.90;;;;;;5112631;28;20032;-88
2021/08/01 02:50:15;;;;;;;21.35;11.30;;;15.00;99.90;;;;;;5112809;28;20036;-88
2021/08/01 02:52:54;;;;;;;21.67;10.38;;;15.00;99.90;;;;;;5128982;28;20047;-87
2021/08/01 02:55:22;;;;;;;19.20;10.50;;;15.00;99.90;;;;;;5129406;28;20395;-87
2021/08/01 02:57:51;;;;;;;17.48;10.90;;;15.00;99.90;;;;;;5095382;28;20119;-87
2021/08/01 03:00:19;;;;;;;16.42;11.57;;;15.00;99.90;;;;;;5129092;28;20036;-87
2021/08/01 03:02:48;;;;;;;21.50;11.48;;;15.00;99.90;;;;;;5095178;28;20044;-87
2021/08/01 03:05:16;;;;;;;18.30;11.55;;;15.00;99.90;;;;;;5128903;28;20040;-87
2021/08/01 03:07:45;;;;;;;21.88;11.30;;;15.00;99.90;;;;;;5112141;28;20126;-89
2021/08/01 03:10:16;;;;;;;23.92;11.68;;;15.00;99.90;;;;;;5112736;28;20043;-88
2021/08/01 03:12:48;;;;;;;21.23;11.68;;;15.00;99.90;;;;;;5128683;28;20047;-87
2021/08/01 03:15:15;;;;;;;16.95;10.63;;;15.00;99.90;;;;;;5128914;28;20399;-87
2021/08/01 03:17:42;;;;;;;17.67;11.05;;;14.90;99.90;;;;;;5095119;28;20400;-87
2021/08/01 03:20:10;;;;;;;17.17;11.93;;;15.00;99.90;;;;;;5129088;28;20036;-89
2021/08/01 03:22:37;;;;;;;19.65;11.88;;;14.90;99.90;;;;;;5111326;28;20485;-87
2021/08/01 03:25:04;;;;;;;22.75;11.98;;;14.90;99.90;;;;;;5095213;28;20043;-87
2021/08/01 03:27:31;;;;;;;22.30;10.88;;;14.90;99.90;;;;;;5095630;28;20427;-90
2021/08/01 03:29:58;;;;;;;20.45;12.95;;;14.90;99.90;;;;;;5095156;28;20036;-88
2021/08/01 03:32:25;;;;;;;18.02;11.75;;;14.90;99.90;;;;;;5111239;28;20495;-88
2021/08/01 03:34:52;;;;;;;22.25;12.27;;;14.90;99.90;;;;;;5095158;28;20120;-88
2021/08/01 03:37:18;;;;;;;21.65;13.13;;;14.90;99.90;;;;;;5095118;28;20089;-88
2021/08/01 03:39:45;;;;;;;22.67;12.93;;;14.90;99.90;;;;;;5094543;28;20059;-88
2021/08/01 03:42:12;;;;;;;22.08;12.05;;;14.90;99.90;;;;;;5094927;28;20464;-88
2021/08/01 03:44:40;;;;;;;18.20;12.85;;;14.90;99.90;;;;;;5094304;28;20062;-88
2021/08/01 03:47:07;;;;;;;22.58;12.50;;;14.90;99.90;;;;;;5111576;28;20055;-88
2021/08/01 03:49:34;;;;;;;20.25;13.02;;;14.90;99.90;;;;;;5094785;28;20043;-88
2021/08/01 03:52:01;;;;;;;25.83;13.52;;;14.90;99.90;;;;;;5094269;28;20423;-88
2021/08/01 03:54:28;;;;;;;19.80;12.60;;;14.90;99.90;;;;;;5094800;28;20468;-89
2021/08/01 03:56:55;;;;;;;27.95;13.20;;;14.90;99.90;;;;;;5094347;28;20081;-89
2021/08/01 03:59:21;;;;;;;22.70;13.27;;;14.90;99.90;;;;;;5111000;28;20036;-88
2021/08/01 04:01:48;;;;;;;23.52;12.82;;;14.90;99.90;;;;;;5094054;28;20493;-87
2021/08/01 04:04:15;;;;;;;22.55;13.10;;;14.90;99.90;;;;;;5094882;28;20069;-88
2021/08/01 04:06:42;;;;;;;19.75;12.38;;;14.90;99.90;;;;;;5094617;28;20499;-88
2021/08/01 04:09:09;;;;;;;20.13;12.93;;;14.80;99.90;;;;;;5111286;28;20040;-87
2021/08/01 04:11:37;;;;;;;22.60;13.75;;;14.80;99.90;;;;;;5113025;28;20040;-88
2021/08/01 04:14:04;;;;;;;22.80;13.25;;;14.90;99.90;;;;;;5131946;28;20055;-89
2021/08/01 04:16:31;;;;;;;26.60;13.90;;;14.80;99.90;;;;;;5116171;28;20446;-90
2021/08/01 04:18:58;;;;;;;26.80;13.43;;;14.90;99.90;;;;;;5098527;28;20043;-88
2021/08/01 04:21:25;;;;;;;21.65;13.80;;;14.90;99.90;;;;;;5115430;28;20105;-89
2021/08/01 04:23:52;;;;;;;26.77;13.32;;;14.90;99.90;;;;;;5115332;28;20063;-91
2021/08/01 04:26:19;;;;;;;22.50;13.15;;;14.90;99.90;;;;;;5082371;28;20043;-88
2021/08/01 04:28:46;;;;;;;23.35;13.60;;;14.90;99.90;;;;;;5098026;28;20040;-87
2021/08/01 04:31:15;;;;;;;26.75;13.75;;;14.90;99.90;;;;;;5098565;28;20055;-88
2021/08/01 04:33:42;;;;;;;21.88;13.07;;;14.90;99.90;;;;;;5098883;28;20395;-87
2021/08/01 04:36:09;;;;;;;26.05;13.68;;;14.90;99.90;;;;;;5099076;28;20098;-88
2021/08/01 04:38:36;;;;;;;24.42;13.93;;;14.90;99.90;;;;;;5115188;28;20054;-89
2021/08/01 04:41:03;;;;;;;24.00;14.60;;;14.90;99.90;;;;;;5114560;28;20089;-89
2021/08/01 04:43:30;;;;;;;29.15;15.65;;;14.90;99.90;;;;;;5098519;28;20040;-89
2021/08/01 04:45:57;;;;;;;26.58;15.00;;;15.00;99.90;;;;;;5131677;28;20042;-88
2021/08/01 04:48:24;;;;;;;33.38;16.23;;;15.00;99.90;;;;;;5098436;28;20093;-89
2021/08/01 04:50:51;;;;;;;30.02;17.15;;;15.00;99.90;;;;;;5098256;28;20396;-90
2021/08/01 04:53:18;;;;;;;28.73;16.17;;;15.00;99.90;;;;;;5097555;28;20078;-90
2021/08/01 04:55:44;;;;;;;29.45;16.80;;;15.00;99.90;;;;;;5131363;28;20431;-89
2021/08/01 04:58:11;;;;;;;32.08;16.92;;;15.00;99.90;;;;;;5115302;28;20654;-89
2021/08/01 05:00:38;;;;;;;30.70;16.40;;;15.00;99.90;;;;;;5114819;28;20040;-87
2021/08/01 05:03:05;;;;;;;37.38;18.80;;;15.10;99.90;;;;;;5114431;28;20036;-89
2021/08/01 05:05:35;;;;;;;36.67;18.42;;;15.10;99.90;;;;;;5114462;28;20036;-87
2021/08/01 05:08:02;;;;;;;32.20;17.70;;;15.10;99.90;;;;;;5098584;28;20043;-88
2021/08/01 05:10:29;;;;;;;37.60;19.90;;;15.10;99.90;;;;;;5098812;28;20038;-88
2021/08/01 05:12:57;;;;;;;37.55;20.83;;;15.20;99.90;;;;;;5114300;28;20119;-89
2021/08/01 05:15:24;;;;;;;39.70;20.50;;;15.20;99.90;;;;;;5131357;28;20089;-89
2021/08/01 05:17:51;;;;;;;41.80;22.40;;;15.20;99.90;;;;;;5130677;28;20494;-87
2021/08/01 05:20:18;;;;;;;41.47;22.08;;;15.30;99.90;;;;;;5131285;28;20032;-89
2021/08/01 05:22:44;;;;;;;41.83;22.13;;;15.30;99.90;;;;;;5131131;28;20094;-89
2021/08/01 05:25:11;;;;;;;37.13;21.08;;;15.30;99.90;;;;;;5097533;28;20115;-89
2021/08/01 05:27:38;;;;;;;34.97;22.02;;;15.40;99.90;;;;;;5114460;28;20042;-89
2021/08/01 05:30:06;;;;;;;40.25;22.75;;;15.40;99.90;;;;;;5097426;28;20119;-88
2021/08/01 05:32:33;;;;;;;37.33;21.80;;;15.40;99.90;;;;;;5097615;28;20139;-88
2021/08/01 05:35:00;;;;;;;42.08;22.17;;;15.50;99.90;;;;;;5129915;28;20123;-89
2021/08/01 05:37:27;;;;;;;39.35;23.15;;;15.50;99.90;;;;;;5131081;28;20495;-89
2021/08/01 05:39:54;;;;;;;35.00;22.33;;;15.60;99.90;;;;;;5096861;28;20468;-88
2021/08/01 05:42:21;;;;;;;35.45;22.80;;;15.60;99.90;;;;;;5115304;28;20067;-87
2021/08/01 05:44:48;;;;;;;44.05;24.35;;;15.60;99.90;;;;;;5097477;28;20484;-88
2021/08/01 05:47:15;;;;;;;41.22;22.75;;;15.70;99.90;;;;;;5113574;28;20036;-88
2021/08/01 05:49:42;;;;;;;48.08;24.83;;;15.70;99.90;;;;;;5097606;28;20032;-88
2021/08/01 05:52:09;;;;;;;44.05;24.38;;;15.70;99.90;;;;;;5113450;28;20408;-88
2021/08/01 05:54:36;;;;;;;47.45;25.25;;;15.80;99.90;;;;;;5097840;28;20052;-89
2021/08/01 05:57:03;;;;;;;43.00;25.00;;;15.80;99.90;;;;;;5096690;28;20440;-90
2021/08/01 05:59:32;;;;;;;49.75;25.88;;;15.80;99.90;;;;;;5097326;28;20535;-88
2021/08/01 06:01:59;;;;;;;46.75;25.88;;;15.80;99.90;;;;;;5113082;28;20392;-86
2021/08/01 06:04:26;;;;;;;47.47;24.48;;;15.80;99.90;;;;;;5096530;28;20111;-87
2021/08/01 06:06:52;;;;;;;52.00;25.45;;;15.90;99.90;;;;;;5096336;28;20543;-87
2021/08/01 06:09:21;;;;;;;47.78;25.92;;;15.90;99.90;;;;;;5113326;28;20035;-87
2021/08/01 06:11:47;;;;;;;48.28;26.88;;;15.90;99.90;;;;;;5113110;28;20035;-87
2021/08/01 06:14:14;;;;;;;46.67;26.20;;;15.90;99.90;;;;;;5112693;28;20032;-88
2021/08/01 06:16:41;;;;;;;59.58;26.73;;;15.90;99.90;;;;;;5095958;28;20032;-87
2021/08/01 06:19:07;;;;;;;51.33;26.17;;;16.00;99.90;;;;;;5113582;28;20210;-87
2021/08/01 06:21:35;;;;;;;48.05;26.05;;;16.10;99.90;;;;;;5138178;28;20035;-87
2021/08/01 06:24:02;;;;;;;46.05;26.50;;;16.10;99.90;;;;;;5116231;28;20464;-89
2021/08/01 06:26:28;;;;;;;42.63;24.88;;;16.20;99.90;;;;;;5150824;28;20034;-89
2021/08/01 06:28:56;;;;;;;44.92;25.85;;;16.20;99.90;;;;;;5115941;28;20031;-87
2021/08/01 06:31:22;;;;;;;44.30;24.48;;;16.30;99.90;;;;;;5113896;28;20036;-87
2021/08/01 06:33:49;;;;;;;39.88;23.35;;;16.30;99.90;;;;;;5095091;28;20051;-86
2021/08/01 06:36:17;;;;;;;39.83;23.63;;;16.30;99.90;;;;;;5095235;28;20040;-86
2021/08/01 06:38:45;;;;;;;40.72;24.85;;;16.40;99.90;;;;;;5128736;28;20412;-85
2021/08/01 06:41:12;;;;;;;42.15;25.27;;;16.40;99.90;;;;;;5128654;28;20060;-85
2021/08/01 06:43:39;;;;;;;43.47;25.83;;;16.40;99.90;;;;;;5128772;28;20040;-86
2021/08/01 06:46:07;;;;;;;42.40;24.48;;;16.50;99.90;;;;;;5128348;28;20051;-84
2021/08/01 06:48:34;;;;;;;46.15;25.33;;;16.50;99.90;;;;;;5128511;28;20035;-85
2021/08/01 06:51:04;;;;;;;42.50;25.20;;;16.50;99.90;;;;;;5143851;28;20042;-84
2021/08/01 06:53:31;;;;;;;46.78;25.20;;;16.60;99.90;;;;;;5128677;28;20542;-85
2021/08/01 06:55:58;;;;;;;39.15;24.88;;;16.60;99.90;;;;;;5132724;28;20046;-85
2021/08/01 06:58:25;;;;;;;41.67;25.27;;;16.70;99.90;;;;;;5145388;28;20454;-85
2021/08/01 07:00:53;;;;;;;42.08;25.58;;;16.80;99.90;;;;;;5131820;28;20028;-85
2021/08/01 07:03:19;;;;;;;35.88;23.70;;;16.90;99.90;;;;;;5145988;28;20048;-84
2021/08/01 07:05:46;;;;;;;35.22;21.98;;;17.00;99.90;;;;;;5120335;28;20044;-85
2021/08/01 07:08:13;;;;;;;27.80;18.63;;;17.10;99.90;;;;;;5148455;28;20480;-87
2021/08/01 07:10:40;;;;;;;28.23;17.13;;;17.20;99.90;;;;;;5087063;28;20044;-87
2021/08/01 07:13:08;;;;;;;26.02;16.13;;;17.20;99.90;;;;;;5109683;28;20172;-84
2021/08/01 07:15:37;;;;;;;22.05;16.17;;;17.20;99.90;;;;;;5131211;28;20035;-85
2021/08/01 07:18:04;;;;;;;24.25;15.80;;;17.20;99.90;;;;;;5111150;28;20036;-84
2021/08/01 07:20:32;;;;;;;24.67;15.98;;;17.30;99.90;;;;;;5111208;28;20090;-85
2021/08/01 07:22:58;;;;;;;20.85;15.25;;;17.40;99.90;;;;;;5110518;28;20043;-84
2021/08/01 07:25:26;;;;;;;20.38;15.02;;;17.50;99.90;;;;;;5110404;28;20516;-85
2021/08/01 07:27:54;;;;;;;20.77;14.50;;;17.40;99.90;;;;;;5111185;28;20039;-87
2021/08/01 07:30:21;;;;;;;24.55;16.02;;;17.40;99.90;;;;;;5109878;28;20039;-74
2021/08/01 07:32:48;;;;;;;23.45;15.07;;;17.30;99.90;;;;;;5127955;28;20097;-74
2021/08/01 07:35:15;;;;;;;22.30;14.75;;;17.30;99.90;;;;;;5127454;28;20070;-73
2021/08/01 07:37:42;;;;;;;22.27;14.95;;;17.40;99.90;;;;;;5128364;28;20036;-71
2021/08/01 07:40:09;;;;;;;17.50;13.48;;;17.30;99.90;;;;;;5134545;28;20460;-71
2021/08/01 07:42:36;;;;;;;19.73;14.35;;;17.30;99.90;;;;;;5139065;28;20106;-72
2021/08/01 07:45:05;;;;;;;23.00;15.05;;;17.30;99.90;;;;;;5142247;28;20043;-71
2021/08/01 07:47:35;;;;;;;20.38;14.00;;;17.50;99.90;;;;;;5147970;28;20040;-73
2021/08/01 07:50:04;;;;;;;17.33;11.57;;;17.60;99.90;;;;;;5128559;28;20043;-74
2021/08/01 07:52:31;;;;;;;14.57;10.27;;;17.80;99.90;;;;;;5143628;28;20499;-72
2021/08/01 07:54:58;;;;;;;16.13;10.20;;;18.00;99.90;;;;;;5117825;28;20043;-74
2021/08/01 07:57:27;;;;;;;13.70;9.18;;;18.20;99.90;;;;;;5140356;28;20110;-72
2021/08/01 08:00:13;;;;;;;11.95;8.38;;;18.30;99.90;;;;;;5130202;28;20392;-85
2021/08/01 08:02:41;;;;;;;11.57;8.25;;;18.20;99.90;;;;;;5127266;28;20044;-85
2021/08/01 08:05:08;;;;;;;11.07;8.30;;;18.10;99.90;;;;;;5127318;28;20097;-86
2021/08/01 08:07:35;;;;;;;10.27;7.70;;;18.10;99.90;;;;;;5127083;28;20028;-85
2021/08/01 08:10:03;;;;;;;11.15;7.15;;;18.10;99.90;;;;;;5094018;28;20544;-87
2021/08/01 08:12:30;;;;;;;9.65;7.18;;;18.10;99.90;;;;;;5127298;28;20396;-86
2021/08/01 08:14:57;;;;;;;9.02;6.53;;;18.10;99.90;;;;;;5128795;28;20064;-87
2021/08/01 08:17:24;;;;;;;8.05;6.28;;;18.10;99.90;;;;;;5119930;28;20036;-85
2021/08/01 08:19:51;;;;;;;7.00;5.63;;;18.00;99.90;;;;;;5128587;28;20039;-86
2021/08/01 08:22:18;;;;;;;7.57;5.70;;;18.00;99.90;;;;;;5133307;28;20511;-85
2021/08/01 08:24:44;;;;;;;7.18;5.63;;;18.00;99.90;;;;;;5107215;28;20047;-87
2021/08/01 08:27:11;;;;;;;6.43;4.68;;;18.00;99.90;;;;;;5130422;28;20487;-82
2021/08/01 08:29:38;;;;;;;5.40;3.15;;;18.00;99.90;;;;;;5125819;28;20066;-88
2021/08/01 08:32:05;;;;;;;5.60;2.90;;;17.90;99.90;;;;;;5112843;28;20092;-85
2021/08/01 08:34:32;;;;;;;6.15;2.70;;;17.90;99.90;;;;;;5101073;28;20042;-84
2021/08/01 08:37:01;;;;;;;4.15;2.28;;;17.80;99.90;;;;;;5113839;28;20035;-85
2021/08/01 08:39:28;;;;;;;3.30;1.90;;;17.80;99.90;;;;;;5130839;28;20036;-83
2021/08/01 08:42:00;;;;;;;5.68;2.00;;;17.70;99.90;;;;;;5147409;28;20039;-84
2021/08/01 08:44:27;;;;;;;7.05;2.55;;;17.70;99.90;;;;;;5147798;28;20036;-88
2021/08/01 08:46:55;;;;;;;4.05;2.03;;;17.70;99.90;;;;;;5147712;28;20041;-72
2021/08/01 08:49:31;;;;;;;3.00;2.00;;;17.70;99.90;;;;;;5143975;28;20032;-91
2021/08/01 08:51:58;;;;;;;3.58;1.92;;;17.80;99.90;;;;;;5142216;28;20082;-79
2021/08/01 08:54:38;;;;;;;4.47;2.00;;;17.80;99.90;;;;;;5092288;28;20379;-69
2021/08/01 08:57:21;;;;;;;3.70;2.30;;;17.90;99.90;;;;;;5128595;28;20032;-69
2021/08/01 08:59:54;;;;;;;3.38;2.20;;;18.00;99.90;;;;;;5131082;28;20047;-70
2021/08/01 09:02:21;;;;;;;3.63;2.38;;;18.20;99.90;;;;;;5130307;28;20040;-71
2021/08/01 09:04:48;;;;;;;3.72;2.50;;;18.30;99.90;;;;;;5129614;28;20498;-70
2021/08/01 09:07:15;;;;;;;4.60;2.30;;;18.40;99.90;;;;;;5130905;28;20111;-70
2021/08/01 09:09:42;;;;;;;4.07;2.47;;;18.40;99.90;;;;;;5112314;28;20552;-69
2021/08/01 09:12:09;;;;;;;6.63;2.05;;;18.40;99.90;;;;;;5130720;28;20086;-70
2021/08/01 09:14:36;;;;;;;3.00;2.00;;;18.20;99.90;;;;;;5128869;28;20036;-70
2021/08/01 09:17:03;;;;;;;2.50;1.40;;;18.10;99.90;;;;;;5129499;28;20028;-69
2021/08/01 09:19:32;;;;;;;1.30;0.80;;;18.20;99.90;;;;;;5128742;28;20040;-70
2021/08/01 09:22:24;;;;;;;1.13;0.73;;;18.10;99.90;;;;;;5130344;28;20043;-69
2021/08/01 09:24:52;;;;;;;2.22;0.60;;;18.00;99.90;;;;;;5130464;28;20040;-70
2021/08/01 09:27:32;;;;;;;5.85;0.70;;;18.10;99.90;;;;;;5130415;28;20036;-70
2021/08/01 09:30:00;;;;;;;1.10;0.60;;;18.10;99.90;;;;;;5130402;28;20055;-70
2021/08/01 09:32:31;;;;;;;1.08;0.60;;;18.10;99.90;;;;;;5129616;28;20450;-70
2021/08/01 09:34:58;;;;;;;1.20;0.60;;;18.10;99.90;;;;;;5130454;28;20036;-69
2021/08/01 09:37:36;;;;;;;1.08;0.65;;;18.10;99.90;;;;;;5128483;28;20119;-69
2021/08/01 09:40:10;;;;;;;1.13;0.70;;;18.10;99.90;;;;;;5130371;28;20036;-70
2021/08/01 09:42:42;;;;;;;1.45;0.70;;;18.00;99.90;;;;;;5129443;28;20468;-69
2021/08/01 09:45:13;;;;;;;1.67;0.77;;;18.00;99.90;;;;;;5130023;28;20044;-69
2021/08/01 09:47:39;;;;;;;1.35;0.60;;;18.00;99.90;;;;;;5129329;28;20067;-69
2021/08/01 09:50:08;;;;;;;1.83;0.63;;;18.10;99.90;;;;;;5128767;28;20040;-69
2021/08/01 09:52:34;;;;;;;3.13;0.68;;;18.00;99.90;;;;;;5131410;28;20097;-70
2021/08/01 09:55:01;;;;;;;2.50;0.90;;;18.10;99.90;;;;;;5139025;28;20362;-69
2021/08/01 09:57:28;;;;;;;3.25;0.60;;;18.00;99.90;;;;;;5136105;28;20040;-69
2021/08/01 10:00:07;;;;;;;1.33;0.70;;;18.10;99.90;;;;;;5129191;28;20036;-70
2021/08/01 10:02:38;;;;;;;1.13;0.70;;;18.00;99.90;;;;;;5137109;28;20051;-70
2021/08/01 10:05:18;;;;;;;2.20;0.70;;;17.90;99.90;;;;;;5150364;28;20110;-69
2021/08/01 10:07:49;;;;;;;2.22;1.10;;;18.00;99.90;;;;;;5149527;28;20934;-69
2021/08/01 10:10:21;;;;;;;1.90;0.80;;;18.00;99.90;;;;;;5149275;28;20039;-70
2021/08/01 10:12:52;;;;;;;1.50;0.70;;;18.00;99.90;;;;;;5149442;28;20036;-69
2021/08/01 10:15:20;;;;;;;2.08;0.80;;;18.10;99.90;;;;;;5148781;28;20043;-69
2021/08/01 10:17:47;;;;;;;1.30;0.60;;;18.20;99.90;;;;;;5148263;28;20693;-69
2021/08/01 10:20:14;;;;;;;1.77;0.70;;;18.30;99.90;;;;;;5148727;28;20028;-69
2021/08/01 10:22:42;;;;;;;1.60;0.70;;;18.40;99.90;;;;;;5149128;28;20040;-69
2021/08/01 10:25:34;;;;;;;2.05;0.90;;;18.50;99.90;;;;;;5145615;28;20108;-69
2021/08/01 10:28:01;;;;;;;1.92;0.70;;;18.60;99.90;;;;;;5149725;28;20431;-69
2021/08/01 10:30:30;;;;;;;2.28;1.13;;;18.60;99.90;;;;;;5147904;28;20042;-71
2021/08/01 10:33:04;;;;;;;1.85;0.70;;;18.60;99.90;;;;;;5132023;28;20071;-69
2021/08/01 10:35:35;;;;;;;1.80;0.73;;;18.50;99.90;;;;;;5131000;28;20479;-71
2021/08/01 10:38:03;;;;;;;2.35;0.90;;;18.40;99.90;;;;;;5149542;28;20475;-69
2021/08/01 10:40:33;;;;;;;1.23;0.63;;;18.40;99.90;;;;;;5147961;28;20043;-70
2021/08/01 10:43:08;;;;;;;2.80;0.82;;;18.30;99.90;;;;;;5145053;28;20047;-70
2021/08/01 10:45:36;;;;;;;2.20;0.80;;;18.30;99.90;;;;;;5135044;28;20523;-71
2021/08/01 10:48:06;;;;;;;1.75;0.80;;;18.30;99.90;;;;;;5127655;28;20036;-72
2021/08/01 10:50:34;;;;;;;1.70;0.90;;;18.40;99.90;;;;;;5128203;28;20044;-70
2021/08/01 10:53:19;;;;;;;1.33;0.80;;;18.40;99.90;;;;;;5139101;28;20447;-70
2021/08/01 10:55:49;;;;;;;2.27;0.97;;;18.40;99.90;;;;;;5126940;28;20054;-72
2021/08/01 10:58:17;;;;;;;2.20;1.00;;;18.60;99.90;;;;;;5128660;28;20383;-70
2021/08/01 11:01:02;;;;;;;3.58;1.10;;;18.80;99.90;;;;;;5128685;28;20028;-69
2021/08/01 11:03:31;;;;;;;2.93;0.90;;;19.10;99.90;;;;;;5137947;28;20039;-69
2021/08/01 11:05:58;;;;;;;2.35;1.10;;;19.40;99.90;;;;;;5139691;28;20103;-69
2021/08/01 11:08:26;;;;;;;3.80;1.10;;;19.70;99.90;;;;;;5136365;28;20040;-70
2021/08/01 11:11:18;;;;;;;2.50;1.00;;;20.00;99.90;;;;;;5127823;28;20109;-71
2021/08/01 11:13:46;;;;;;;4.45;1.10;;;20.20;99.90;;;;;;5138611;28;20030;-72
2021/08/01 11:16:30;;;;;;;2.63;1.10;;;20.20;99.90;;;;;;5140265;28;20106;-71
2021/08/01 11:18:56;;;;;;;3.78;1.10;;;20.00;99.90;;;;;;5139982;28;20065;-70
2021/08/01 11:21:38;;;;;;;2.40;1.10;;;19.90;99.90;;;;;;5133583;28;20117;-69
2021/08/01 11:24:14;;;;;;;2.28;1.00;;;19.80;99.90;;;;;;5117882;28;20047;-83
2021/08/01 11:27:07;;;;;;;1.70;0.95;;;19.70;99.90;;;;;;5148623;28;20028;-84
2021/08/01 11:30:08;;;;;;;4.60;1.10;;;19.70;99.90;;;;;;5148254;28;20377;-85
2021/08/01 11:32:51;;;;;;;4.55;1.02;;;19.40;99.90;;;;;;5136427;28;20074;-76
2021/08/01 11:35:19;;;;;;;3.60;1.30;;;19.30;99.90;;;;;;5115373;28;20040;-87
2021/08/01 11:37:46;;;;;;;6.40;1.10;;;19.40;99.90;;;;;;5111559;28;20452;-89
2021/08/01 11:40:13;;;;;;;4.95;1.20;;;19.50;99.90;;;;;;5128018;28;20032;-90
2021/08/01 11:42:41;;;;;;;3.05;1.00;;;19.60;99.90;;;;;;5127844;28;20113;-89
2021/08/01 11:45:13;;;;;;;2.58;1.10;;;19.60;99.90;;;;;;5128889;28;20484;-91
2021/08/01 11:47:44;;;;;;;2.85;1.20;;;19.50;99.90;;;;;;5130644;28;20040;-87
2021/08/01 11:50:13;;;;;;;2.42;1.10;;;19.40;99.90;;;;;;5149487;28;20107;-90
2021/08/01 11:52:43;;;;;;;3.80;1.38;;;19.30;99.90;;;;;;5101398;28;20056;-85
2021/08/01 11:55:18;;;;;;;3.60;1.20;;;19.20;99.90;;;;;;5132681;28;20039;-91
2021/08/01 11:57:46;;;;;;;3.65;1.10;;;19.20;99.90;;;;;;5144126;28;20035;-89
2021/08/01 12:00:14;;;;;;;3.03;1.45;;;19.20;99.90;;;;;;5149260;28;20055;-91
2021/08/01 12:02:57;;;;;;;2.38;1.00;;;19.30;99.90;;;;;;5150052;28;20043;-90
2021/08/01 12:05:42;;;;;;;2.47;0.90;;;19.50;99.90;;;;;;5132975;28;20088;-90
2021/08/01 12:08:35;;;;;;;4.90;1.17;;;19.60;99.90;;;;;;5149679;28;20035;-91
2021/08/01 12:11:17;;;;;;;3.15;1.23;;;19.70;99.90;;;;;;5147711;28;20036;-90
2021/08/01 12:14:09;;;;;;;2.67;1.40;;;19.50;99.90;;;;;;5132633;28;20036;-89
2021/08/01 12:16:36;;;;;;;6.72;1.80;;;19.30;99.90;;;;;;5115773;28;20031;-90
2021/08/01 12:19:24;;;;;;;4.30;1.83;;;19.20;99.90;;;;;;5121033;28;20476;-92
2021/08/01 12:21:55;;;;;;;4.35;1.58;;;19.00;99.90;;;;;;5116217;28;20049;-90
2021/08/01 12:24:39;;;;;;;4.20;1.45;;;19.00;99.90;;;;;;5144976;28;20032;-91
2021/08/01 12:27:13;;;;;;;5.90;1.77;;;19.10;99.90;;;;;;5127190;28;20448;-91
2021/08/01 12:29:42;;;;;;;4.30;1.50;;;19.30;99.90;;;;;;5129245;28;20040;-91
2021/08/01 12:32:30;;;;;;;6.10;1.30;;;19.60;99.90;;;;;;5113555;28;20405;-90
2021/08/01 12:35:06;;;;;;;4.53;1.40;;;19.70;99.90;;;;;;5151768;28;20032;-91
2021/08/01 12:37:43;;;;;;;4.28;1.50;;;19.90;99.90;;;;;;5151882;28;20028;-90
2021/08/01 12:40:11;;;;;;;3.42;1.38;;;20.10;99.90;;;;;;5141650;28;20036;-89
2021/08/01 12:42:56;;;;;;;4.38;1.35;;;20.20;99.90;;;;;;5115581;28;20056;-89
2021/08/01 12:45:35;;;;;;;3.53;1.30;;;20.20;99.90;;;;;;5150550;28;20061;-91
2021/08/01 12:48:04;;;;;;;3.78;1.38;;;20.10;99.90;;;;;;5117305;28;20036;-89
2021/08/01 12:50:32;;;;;;;2.75;1.15;;;20.10;99.90;;;;;;5148122;28;20038;-89
2021/08/01 12:53:01;;;;;;;3.22;1.00;;;20.00;99.90;;;;;;5123167;28;20071;-86